McCall, Idaho
Current Conditions -  °F | °C
As of 7:51 AM on Sunday 23 Nov 2014 (Local Time) from KMYL Reporting Station
Overcast Overcast  
Wind Chill: -3°   Ceiling: 4700
Heat Index: -3°   Visibility: 10mi
Dew Point: -6°   Wind: 0mph
Humidity: 84%   Direction: NA
Pressure: 30.16"   Gusts: NA
Location:  44.91°N, 116.1°W
Report Text: KMYL 231451Z AUTO 00000KT 10SM OVC047 M03/M06 A3016 RMK AO2 SLP244 60000 T10331056 51016
Loading
Personal Weather Stations






























Interactive Weather Map New forecast layout! Learn more

10-Day Weather Forecast

Advertisements
Track Severe Weather on mobile